Time;durP1;ratioP1;P1;durP2;ratioP2;P2;SDS_P1;SDS_P2;PMS_P1;PMS_P2;Temp;Humidity;BMP_temperature;BMP_pressure;BME280_temperature;BME280_humidity;BME280_pressure;Samples;Min_cycle;Max_cycle;Signal;HPM_P1;HPM_P2
2022/08/24 00:01:06;;;;;;;10.10;7.60;;;;;;;22.31;66.62;101597.53;5052912;28;20025;-63
2022/08/24 00:03:33;;;;;;;10.85;7.53;;;;;;;22.21;66.49;101596.84;5052947;28;20033;-65
2022/08/24 00:05:58;;;;;;;12.40;8.30;;;;;;;22.22;66.41;101595.03;5052878;28;20031;-63
2022/08/24 00:08:25;;;;;;;9.85;8.25;;;;;;;22.12;67.23;101601.56;5053150;28;20025;-64
2022/08/24 00:10:50;;;;;;;9.65;8.18;;;;;;;22.01;67.75;101593.75;5052754;28;20036;-65
2022/08/24 00:13:16;;;;;;;13.52;8.30;;;;;;;22.02;68.17;101603.59;5052802;28;20021;-65
2022/08/24 00:15:42;;;;;;;10.27;8.88;;;;;;;21.92;68.54;101597.53;5052687;28;20028;-64
2022/08/24 00:18:08;;;;;;;16.27;8.18;;;;;;;22.08;67.71;101603.44;5052877;28;20036;-66
2022/08/24 00:20:33;;;;;;;9.70;7.85;;;;;;;22.22;67.29;101606.69;5052785;28;20032;-65
2022/08/24 00:22:59;;;;;;;11.52;8.65;;;;;;;22.28;66.89;101610.19;5052911;28;20104;-63
2022/08/24 00:25:24;;;;;;;14.20;8.70;;;;;;;22.26;66.73;101610.19;5052636;28;20182;-65
2022/08/24 00:27:50;;;;;;;12.52;8.60;;;;;;;22.15;66.96;101605.09;5052616;28;20090;-65
2022/08/24 00:30:18;;;;;;;12.65;8.52;;;;;;;22.12;67.08;101610.56;5052654;28;20364;-64
2022/08/24 00:32:45;;;;;;;10.43;8.20;;;;;;;22.06;67.17;101617.88;5052694;28;20117;-64
2022/08/24 00:35:11;;;;;;;11.82;8.23;;;;;;;22.03;67.03;101616.13;5052789;28;20033;-66
2022/08/24 00:37:37;;;;;;;11.77;8.00;;;;;;;21.88;67.74;101620.06;5052498;28;20029;-63
2022/08/24 00:40:16;;;;;;;12.73;8.27;;;;;;;21.91;67.11;101622.69;5052501;28;20545;-66
2022/08/24 00:42:41;;;;;;;11.15;8.57;;;;;;;21.77;68.14;101615.88;5052269;28;20545;-63
2022/08/24 00:45:09;;;;;;;15.90;8.60;;;;;;;21.70;68.51;101618.69;5052522;28;20033;-65
2022/08/24 00:47:49;;;;;;;14.27;9.25;;;;;;;21.75;67.77;101608.72;5052603;28;20025;-65
2022/08/24 00:50:39;;;;;;;12.57;8.32;;;;;;;21.71;68.15;101616.88;5052378;28;20033;-65
2022/08/24 00:53:08;;;;;;;12.48;8.77;;;;;;;21.74;68.19;101617.69;5052569;28;20036;-65
2022/08/24 00:55:40;;;;;;;14.75;9.20;;;;;;;21.74;68.20;101611.44;5052315;28;20053;-65
2022/08/24 00:58:15;;;;;;;13.35;8.43;;;;;;;21.80;67.62;101613.09;5052565;28;20037;-64
2022/08/24 01:00:45;;;;;;;11.50;8.70;;;;;;;21.78;67.89;101617.63;5052608;28;20047;-64
2022/08/24 01:03:12;;;;;;;12.50;9.80;;;;;;;21.68;68.74;101625.03;5052968;28;20033;-64
2022/08/24 01:05:38;;;;;;;11.60;10.43;;;;;;;21.74;68.81;101630.28;5056227;28;20021;-66
2022/08/24 01:08:07;;;;;;;18.02;11.40;;;;;;;21.76;68.68;101633.84;5056107;28;20025;-64
2022/08/24 01:10:38;;;;;;;16.40;10.23;;;;;;;21.86;68.36;101621.91;5056135;28;20103;-64
2022/08/24 01:13:06;;;;;;;13.02;10.30;;;;;;;21.80;68.52;101624.78;5055945;28;20025;-65
2022/08/24 01:15:34;;;;;;;15.25;11.07;;;;;;;21.72;68.86;101626.75;5055877;28;20074;-64
2022/08/24 01:20:49;;;;;;;14.77;11.20;;;;;;;21.70;69.44;101620.50;5056279;28;20497;-65
2022/08/24 01:23:38;;;;;;;14.40;11.73;;;;;;;21.68;68.77;101622.34;5055918;28;20441;-64
2022/08/24 01:26:05;;;;;;;13.30;10.80;;;;;;;21.70;68.66;101618.69;5055782;28;20044;-63
2022/08/24 01:28:31;;;;;;;13.23;10.18;;;;;;;21.68;68.48;101623.25;5055769;28;20075;-64
2022/08/24 01:30:57;;;;;;;13.93;10.25;;;;;;;21.62;68.38;101626.03;5055867;28;20041;-64
2022/08/24 01:33:29;;;;;;;14.60;10.30;;;;;;;21.56;68.63;101633.38;5055625;28;20087;-64
2022/08/24 01:36:02;;;;;;;12.80;10.10;;;;;;;21.53;68.54;101620.88;5055756;28;20032;-64
2022/08/24 01:38:27;;;;;;;12.32;9.77;;;;;;;21.43;68.73;101630.09;5055523;28;20027;-64
2022/08/24 01:40:57;;;;;;;11.68;10.30;;;;;;;21.30;69.29;101628.53;5055820;28;20021;-65
2022/08/24 01:43:23;;;;;;;10.73;9.48;;;;;;;21.41;68.68;101616.69;5055472;28;20109;-65
2022/08/24 01:45:48;;;;;;;19.17;9.95;;;;;;;21.41;68.46;101613.09;5055832;28;20053;-65
2022/08/24 01:48:14;;;;;;;10.80;9.55;;;;;;;21.54;68.33;101611.91;5055436;28;20072;-65
2022/08/24 01:50:40;;;;;;;12.73;10.20;;;;;;;21.51;67.85;101609.28;5055298;28;20025;-65
2022/08/24 01:53:05;;;;;;;12.38;10.68;;;;;;;21.53;68.13;101607.44;5055340;28;20047;-65
2022/08/24 01:55:31;;;;;;;11.60;10.15;;;;;;;21.42;68.58;101614.88;5055437;28;20132;-64
2022/08/24 01:57:58;;;;;;;11.73;9.77;;;;;;;21.30;68.92;101615.09;5055288;28;20471;-65
2022/08/24 02:00:25;;;;;;;13.60;10.43;;;;;;;21.17;69.01;101615.34;5055191;28;20037;-65
2022/08/24 02:02:50;;;;;;;15.65;10.63;;;;;;;21.13;69.54;101619.03;5055308;28;20029;-63
2022/08/24 02:05:17;;;;;;;14.48;9.80;;;;;;;21.14;69.42;101611.84;5053776;28;20074;-65
2022/08/24 02:07:42;;;;;;;14.13;10.10;;;;;;;21.14;69.53;101615.41;5054836;28;20103;-64
2022/08/24 02:10:10;;;;;;;13.32;10.52;;;;;;;21.04;69.59;101616.53;5055005;28;20121;-64
2022/08/24 02:12:38;;;;;;;11.43;9.65;;;;;;;21.15;69.23;101618.97;5054685;28;20112;-64
2022/08/24 02:15:06;;;;;;;14.73;10.20;;;;;;;21.11;69.29;101612.81;5055007;28;20055;-62
2022/08/24 02:17:33;;;;;;;15.32;11.05;;;;;;;20.97;70.04;101617.56;5054829;28;20048;-65
2022/08/24 02:19:59;;;;;;;14.55;10.82;;;;;;;20.92;69.86;101617.66;5070253;28;20029;-66
2022/08/24 02:22:24;;;;;;;13.82;10.45;;;;;;;20.82;70.15;101613.38;5054726;28;20033;-66
2022/08/24 02:24:50;;;;;;;14.52;11.05;;;;;;;20.67;70.98;101616.34;5054674;28;20494;-63
2022/08/24 02:27:15;;;;;;;13.18;10.25;;;;;;;20.71;70.25;101623.44;5054634;28;20478;-65
2022/08/24 02:29:41;;;;;;;14.73;10.20;;;;;;;20.72;70.47;101625.19;5054970;28;20033;-65
2022/08/24 02:32:07;;;;;;;11.57;10.10;;;;;;;20.75;70.20;101626.03;5054861;28;20029;-64
2022/08/24 02:34:32;;;;;;;13.27;10.90;;;;;;;20.80;70.41;101633.13;5054527;28;20017;-64
2022/08/24 02:36:58;;;;;;;16.60;12.10;;;;;;;20.77;70.95;101636.78;5053152;28;20482;-64
2022/08/24 02:39:24;;;;;;;16.35;12.38;;;;;;;20.71;71.56;101640.44;5053186;28;20064;-65
2022/08/24 02:41:51;;;;;;;13.02;10.90;;;;;;;20.76;70.41;101643.03;5054325;28;20056;-65
2022/08/24 02:44:16;;;;;;;13.98;10.70;;;;;;;20.64;70.86;101640.56;5054390;28;20025;-64
2022/08/24 02:46:42;;;;;;;14.88;10.40;;;;;;;20.73;70.58;101643.13;5054268;28;20032;-63
2022/08/24 02:49:07;;;;;;;14.10;10.73;;;;;;;20.75;70.22;101642.16;5054443;28;20026;-66
2022/08/24 02:51:33;;;;;;;15.80;11.45;;;;;;;20.73;70.41;101637.75;5054087;28;20044;-65
2022/08/24 02:54:00;;;;;;;15.10;10.68;;;;;;;20.78;69.93;101633.16;5052918;28;20036;-65
2022/08/24 02:56:30;;;;;;;16.92;11.40;;;;;;;20.70;70.24;101635.09;5054286;28;20055;-63
2022/08/24 02:58:57;;;;;;;13.00;10.52;;;;;;;20.69;70.11;101639.59;5054321;28;20033;-63
2022/08/24 03:01:22;;;;;;;14.02;11.70;;;;;;;20.71;70.08;101634.19;5054035;28;20505;-65
2022/08/24 03:03:47;;;;;;;13.88;10.73;;;;;;;20.74;69.82;101636.81;5054345;28;20032;-64
2022/08/24 03:06:13;;;;;;;15.48;11.05;;;;;;;20.73;69.47;101635.94;5053927;28;20386;-64
2022/08/24 03:08:39;;;;;;;17.50;11.75;;;;;;;20.75;69.60;101628.72;5053905;28;20021;-65
2022/08/24 03:11:07;;;;;;;15.43;12.00;;;;;;;20.60;70.85;101628.13;5053990;28;20084;-65
2022/08/24 03:13:33;;;;;;;18.95;12.23;;;;;;;20.53;70.50;101629.16;5053476;28;20471;-65
2022/08/24 03:15:59;;;;;;;15.07;11.95;;;;;;;20.40;71.05;101629.34;5053771;28;20028;-64
2022/08/24 03:18:26;;;;;;;17.70;12.00;;;;;;;20.30;71.56;101627.75;5052349;28;20035;-65
2022/08/24 03:20:52;;;;;;;14.93;12.13;;;;;;;20.31;71.40;101625.94;5053639;28;20029;-65
2022/08/24 03:23:18;;;;;;;15.82;11.40;;;;;;;20.29;71.15;101627.75;5053649;28;20025;-66
2022/08/24 03:25:44;;;;;;;15.68;11.95;;;;;;;20.26;71.79;101626.00;5053282;28;20412;-65
2022/08/24 03:28:10;;;;;;;15.93;11.45;;;;;;;20.28;71.47;101624.16;5053425;28;20104;-64
2022/08/24 03:30:38;;;;;;;14.10;10.85;;;;;;;20.30;71.09;101624.13;5053497;28;20066;-64
2022/08/24 03:33:04;;;;;;;12.80;10.73;;;;;;;20.32;71.00;101625.00;5053465;28;20060;-65
2022/08/24 03:35:30;;;;;;;18.17;11.65;;;;;;;20.31;71.17;101626.81;5053366;28;20471;-64
2022/08/24 03:37:56;;;;;;;13.82;11.18;;;;;;;20.21;71.34;101622.50;5053811;28;20048;-64
2022/08/24 03:40:22;;;;;;;17.08;11.55;;;;;;;20.23;71.17;101615.31;5053268;28;20474;-64
2022/08/24 03:42:48;;;;;;;16.27;11.52;;;;;;;20.25;70.88;101618.84;5053095;28;20031;-64
2022/08/24 03:45:14;;;;;;;16.60;12.63;;;;;;;20.17;71.38;101610.03;5053133;28;20021;-64
2022/08/24 03:47:39;;;;;;;15.68;12.73;;;;;;;20.12;71.56;101615.47;5053114;28;20025;-66
2022/08/24 03:50:07;;;;;;;13.77;11.20;;;;;;;20.18;71.07;101619.88;5053427;28;20445;-64
2022/08/24 03:52:34;;;;;;;17.02;11.52;;;;;;;20.17;70.95;101620.78;5053085;28;20044;-63
2022/08/24 03:55:01;;;;;;;14.70;12.07;;;;;;;20.14;70.94;101631.56;5051828;28;20035;-64
2022/08/24 03:57:27;;;;;;;15.10;13.32;;;;;;;20.09;71.91;101633.47;5053037;28;20411;-64
2022/08/24 03:59:53;;;;;;;16.80;13.68;;;;;;;20.08;72.13;101619.13;5051691;28;20025;-65
2022/08/24 04:02:19;;;;;;;16.45;12.30;;;;;;;20.06;71.41;101629.00;5053063;28;20418;-65
2022/08/24 04:04:44;;;;;;;20.08;11.68;;;;;;;20.04;71.13;101628.13;5053026;28;20482;-64
2022/08/24 04:07:10;;;;;;;16.90;12.00;;;;;;;20.06;71.20;101633.50;5052890;28;20051;-64
2022/08/24 04:09:35;;;;;;;15.35;11.50;;;;;;;20.05;71.10;101624.56;5053102;28;20032;-64
2022/08/24 04:12:00;;;;;;;16.10;12.45;;;;;;;20.06;71.50;101634.38;5052667;28;20044;-65
2022/08/24 04:14:26;;;;;;;18.83;12.90;;;;;;;20.07;72.22;101629.91;5052923;28;20032;-64
2022/08/24 04:16:51;;;;;;;15.93;13.55;;;;;;;19.98;72.24;101631.81;5052888;28;20021;-65
2022/08/24 04:19:17;;;;;;;20.92;15.27;;;;;;;19.97;73.23;101634.53;5053065;28;20382;-64
2022/08/24 04:21:43;;;;;;;13.65;11.43;;;;;;;20.01;71.71;101636.25;5051482;28;20482;-64
2022/08/24 04:24:10;;;;;;;16.88;12.43;;;;;;;19.97;71.98;101635.41;5052459;28;20049;-64
2022/08/24 04:26:38;;;;;;;17.60;13.60;;;;;;;19.91;72.38;101639.97;5052022;28;20029;-64
2022/08/24 04:29:04;;;;;;;19.30;13.48;;;;;;;19.83;72.81;101640.09;5051989;28;20056;-65
2022/08/24 04:31:30;;;;;;;22.08;14.35;;;;;;;19.77;73.37;101645.53;5051575;28;20561;-65
2022/08/24 04:33:56;;;;;;;17.50;15.00;;;;;;;19.78;73.32;101647.31;5052167;28;20025;-64
2022/08/24 04:36:22;;;;;;;18.23;14.45;;;;;;;19.81;73.41;101646.41;5051776;28;20036;-65
2022/08/24 04:38:48;;;;;;;18.67;13.35;;;;;;;19.88;72.53;101643.59;5053347;28;20514;-64
2022/08/24 04:41:14;;;;;;;15.93;13.77;;;;;;;19.93;72.26;101647.09;5055352;28;20040;-65
2022/08/24 04:43:44;;;;;;;17.45;13.65;;;;;;;19.93;72.14;101648.91;5055202;28;20024;-63
2022/08/24 04:46:13;;;;;;;18.77;14.48;;;;;;;19.89;72.19;101650.72;5055232;28;20095;-64
2022/08/24 04:48:40;;;;;;;19.27;13.73;;;;;;;19.99;72.27;101652.34;5055456;28;20033;-65
2022/08/24 04:51:07;;;;;;;14.88;12.25;;;;;;;20.09;71.25;101646.88;5055270;28;20363;-65
2022/08/24 04:53:33;;;;;;;17.70;11.88;;;;;;;20.02;71.15;101652.31;5055000;28;20382;-64
2022/08/24 04:55:59;;;;;;;18.73;11.90;;;;;;;20.06;71.72;101649.59;5055213;28;20029;-63
2022/08/24 04:58:26;;;;;;;13.63;11.68;;;;;;;20.01;71.15;101658.59;5055026;28;20112;-64
2022/08/24 05:00:52;;;;;;;16.63;12.18;;;;;;;19.97;71.60;101658.69;5054877;28;20036;-64
2022/08/24 05:03:18;;;;;;;12.63;11.38;;;;;;;20.02;72.06;101663.03;5054949;28;20116;-64
2022/08/24 05:05:46;;;;;;;15.25;13.02;;;;;;;20.11;72.54;101653.09;5054921;28;20549;-64
2022/08/24 05:08:12;;;;;;;13.23;11.82;;;;;;;20.11;71.50;101656.66;5054926;28;20115;-64
2022/08/24 05:10:40;;;;;;;17.95;12.77;;;;;;;20.07;71.18;101659.41;5054854;28;20028;-64
2022/08/24 05:13:06;;;;;;;18.77;12.77;;;;;;;20.07;71.24;101660.28;5054657;28;20037;-64
2022/08/24 05:15:32;;;;;;;16.13;14.23;;;;;;;20.02;72.26;101660.38;5054561;28;20104;-64
2022/08/24 05:17:58;;;;;;;17.42;13.32;;;;;;;20.11;71.74;101661.13;5054857;28;20021;-65
2022/08/24 05:20:25;;;;;;;21.05;14.55;;;;;;;20.18;71.52;101652.97;5054678;28;20028;-64
2022/08/24 05:22:52;;;;;;;18.15;13.70;;;;;;;20.15;71.26;101662.88;5053579;28;20025;-64
2022/08/24 05:25:17;;;;;;;18.42;14.15;;;;;;;20.23;71.54;101664.50;5010877;28;1270020;-64
2022/08/24 05:27:43;;;;;;;15.95;14.25;;;;;;;20.41;71.24;101666.00;5055774;28;20064;-65
2022/08/24 05:30:09;;;;;;;15.65;13.85;;;;;;;20.54;70.91;101666.72;5055724;28;20040;-65
2022/08/24 05:32:36;;;;;;;16.88;13.50;;;;;;;20.64;70.46;101670.13;5055649;28;20032;-65
2022/08/24 05:35:03;;;;;;;20.90;14.82;;;;;;;20.68;70.55;101675.41;5055939;28;20036;-65
2022/08/24 05:37:30;;;;;;;18.95;14.23;;;;;;;20.76;70.65;101669.91;5055626;28;20033;-64
2022/08/24 05:39:56;;;;;;;18.35;15.52;;;;;;;20.84;70.46;101672.44;5055776;28;20029;-64
2022/08/24 05:42:21;;;;;;;16.48;14.70;;;;;;;20.88;70.56;101675.03;5055240;28;20048;-64
2022/08/24 05:44:46;;;;;;;17.25;14.73;;;;;;;20.97;70.71;101676.66;5055504;28;20028;-65
2022/08/24 05:47:12;;;;;;;16.30;13.55;;;;;;;21.10;70.32;101682.69;5054232;28;20036;-64
2022/08/24 05:49:37;;;;;;;23.05;16.80;;;;;;;21.18;70.90;101678.94;5070332;28;20395;-65
2022/08/24 05:52:03;;;;;;;21.33;18.33;;;;;;;21.27;71.24;101669.81;5055325;28;20033;-63
2022/08/24 05:54:28;;;;;;;19.48;16.90;;;;;;;21.40;70.75;101674.03;5055568;28;20387;-64
2022/08/24 05:56:54;;;;;;;24.33;20.85;;;;;;;21.49;71.11;101672.97;5055602;28;20482;-65
2022/08/24 05:59:21;;;;;;;29.73;26.05;;;;;;;21.65;71.43;101684.28;5055126;28;20021;-65
2022/08/24 06:01:47;;;;;;;32.72;28.67;;;;;;;21.72;72.00;101672.47;5055292;28;20025;-65
2022/08/24 06:04:12;;;;;;;31.85;28.40;;;;;;;21.91;71.73;101672.94;5055197;28;20100;-64
2022/08/24 06:06:38;;;;;;;28.05;24.90;;;;;;;22.07;71.36;101671.66;5055101;28;20036;-65
2022/08/24 06:09:04;;;;;;;28.25;24.95;;;;;;;22.23;70.61;101681.19;5055145;28;20025;-65
2022/08/24 06:11:36;;;;;;;28.27;25.42;;;;;;;22.42;70.04;101672.63;5054747;28;20530;-65
2022/08/24 06:14:07;;;;;;;31.95;26.75;;;;;;;22.50;70.30;101673.31;5055310;28;20059;-64
2022/08/24 06:16:37;;;;;;;30.65;24.90;;;;;;;22.73;69.74;101681.69;5054916;28;20107;-65
2022/08/24 06:19:04;;;;;;;30.42;26.73;;;;;;;22.93;69.87;101688.41;5054992;28;20482;-65
2022/08/24 06:21:30;;;;;;;31.17;26.98;;;;;;;23.02;70.77;101692.66;5054849;28;20047;-65
2022/08/24 06:23:56;;;;;;;32.92;28.55;;;;;;;23.15;70.67;101691.38;5054674;28;20056;-64
2022/08/24 06:29:06;;;;;;;31.25;26.85;;;;;;;23.35;70.28;101697.09;5055046;28;20075;-65
2022/08/24 06:31:41;;;;;;;30.15;26.45;;;;;;;23.48;70.21;101703.03;5054625;28;20033;-65
2022/08/24 06:34:08;;;;;;;33.95;27.35;;;;;;;23.65;68.70;101697.16;5054511;28;20021;-64
2022/08/24 06:36:33;;;;;;;35.08;28.48;;;;;;;23.80;68.76;101702.09;5054415;28;20028;-65
2022/08/24 06:38:59;;;;;;;32.78;27.55;;;;;;;24.00;68.03;101698.78;5054391;28;20029;-65
2022/08/24 06:41:25;;;;;;;34.40;27.70;;;;;;;24.16;67.34;101701.88;5054394;28;20032;-65
2022/08/24 06:43:51;;;;;;;38.85;28.70;;;;;;;24.27;67.22;101707.78;5054183;28;20025;-65
2022/08/24 06:46:16;;;;;;;36.38;28.88;;;;;;;24.47;67.02;101710.78;5054537;28;20093;-64
2022/08/24 06:48:42;;;;;;;34.47;28.58;;;;;;;24.61;65.93;101714.81;5054476;28;20083;-64
2022/08/24 06:51:13;;;;;;;35.42;29.83;;;;;;;24.78;65.64;101706.13;5054257;28;20045;-64
2022/08/24 06:53:39;;;;;;;34.28;27.17;;;;;;;24.94;64.39;101707.38;5054358;28;20378;-65
2022/08/24 06:56:06;;;;;;;33.90;26.63;;;;;;;25.11;63.59;101710.38;5069456;28;20443;-66
2022/08/24 06:58:32;;;;;;;31.73;27.20;;;;;;;25.28;63.77;101706.19;5054164;28;20112;-64
2022/08/24 07:01:07;;;;;;;34.83;26.27;;;;;;;25.49;63.04;101713.50;5068633;28;20040;-64
2022/08/24 07:03:32;;;;;;;31.13;25.90;;;;;;;25.63;62.85;101715.69;5053941;28;20047;-65
2022/08/24 07:05:58;;;;;;;35.50;25.15;;;;;;;25.74;61.40;101716.16;5053911;28;20490;-65
2022/08/24 07:08:23;;;;;;;31.48;25.65;;;;;;;25.90;61.20;101720.06;5054113;28;20108;-63
2022/08/24 07:10:49;;;;;;;30.40;25.27;;;;;;;26.07;60.56;101722.09;5053912;28;20514;-64
2022/08/24 07:13:15;;;;;;;27.88;23.98;;;;;;;26.24;60.20;101724.13;5053577;28;20029;-63
2022/08/24 07:15:41;;;;;;;31.90;24.02;;;;;;;26.44;59.57;101717.94;5053991;28;20032;-63
2022/08/24 07:18:11;;;;;;;27.17;24.15;;;;;;;26.61;59.46;101718.09;5053964;28;20434;-63
2022/08/24 07:20:37;;;;;;;30.85;23.60;;;;;;;26.81;57.74;101722.69;5053483;28;20116;-64
2022/08/24 07:23:04;;;;;;;26.60;22.10;;;;;;;26.97;57.51;101725.59;5053981;28;20112;-65
2022/08/24 07:25:31;;;;;;;24.95;20.58;;;;;;;27.16;55.84;101718.44;5053405;28;20051;-65
2022/08/24 07:27:58;;;;;;;23.73;21.10;;;;;;;27.33;55.86;101728.53;5053669;28;20482;-66
2022/08/24 07:30:24;;;;;;;27.73;20.02;;;;;;;27.53;54.37;101719.47;5053422;28;20021;-65
2022/08/24 07:32:50;;;;;;;25.52;19.50;;;;;;;27.89;53.96;101718.75;5053597;28;20041;-64
2022/08/24 07:35:15;;;;;;;22.77;17.65;;;;;;;28.16;52.06;101719.22;5053382;28;20467;-66
2022/08/24 07:37:41;;;;;;;23.38;18.17;;;;;;;28.39;52.25;101724.47;5053568;28;20040;-65
2022/08/24 07:40:07;;;;;;;22.67;18.33;;;;;;;28.62;51.55;101720.56;5053309;28;20494;-67
2022/08/24 07:42:33;;;;;;;23.35;17.63;;;;;;;28.81;50.58;101717.78;5053007;28;20021;-64
2022/08/24 07:44:58;;;;;;;20.60;17.02;;;;;;;29.08;48.69;101718.22;5053323;28;20037;-65
2022/08/24 07:47:24;;;;;;;21.33;16.45;;;;;;;29.32;48.28;101721.47;5053208;28;20029;-65
2022/08/24 07:49:49;;;;;;;18.20;15.05;;;;;;;29.54;47.13;101717.56;5053140;28;20094;-66
2022/08/24 07:52:14;;;;;;;22.70;15.10;;;;;;;29.62;46.25;101716.22;5053208;28;20479;-66
2022/08/24 07:54:40;;;;;;;18.10;13.82;;;;;;;29.72;45.92;101715.69;5053230;28;20021;-65
2022/08/24 07:57:05;;;;;;;18.27;12.85;;;;;;;29.84;46.12;101718.63;5053014;28;20115;-64
2022/08/24 07:59:32;;;;;;;21.88;14.80;;;;;;;29.96;46.34;101718.91;5053153;28;20025;-65
2022/08/24 08:01:58;;;;;;;27.00;14.27;;;;;;;30.19;45.66;101715.75;5053032;28;20025;-66
2022/08/24 08:04:24;;;;;;;20.05;13.90;;;;;;;30.41;45.47;101719.00;5051538;28;20017;-64
2022/08/24 08:06:51;;;;;;;20.58;13.52;;;;;;;30.53;45.13;101716.50;5052959;28;20032;-66
2022/08/24 08:09:16;;;;;;;18.17;12.13;;;;;;;30.71;43.20;101718.16;5053032;28;20021;-66
2022/08/24 08:11:43;;;;;;;18.05;9.80;;;;;;;30.76;41.95;101715.19;5052516;28;20044;-65
2022/08/24 08:14:08;;;;;;;16.60;10.23;;;;;;;30.63;41.51;101723.19;5052690;28;20103;-65
2022/08/24 08:16:33;;;;;;;13.68;8.70;;;;;;;30.46;42.08;101717.88;5052967;28;20056;-66
2022/08/24 08:18:59;;;;;;;12.20;7.38;;;;;;;30.60;40.71;101718.78;5052511;28;20033;-66
2022/08/24 08:24:14;;;;;;;13.35;8.68;;;;;;;30.96;41.18;101728.47;5052753;28;20052;-65
2022/08/24 08:26:40;;;;;;;14.73;8.88;;;;;;;31.33;40.24;101727.13;5052495;28;20124;-65
2022/08/24 08:29:07;;;;;;;21.15;9.43;;;;;;;31.55;39.87;101729.38;5052789;28;20028;-65
2022/08/24 08:31:32;;;;;;;14.70;8.57;;;;;;;31.91;39.86;101722.59;5052506;28;20044;-66
2022/08/24 08:33:58;;;;;;;13.70;8.48;;;;;;;31.97;39.33;101729.50;5052827;28;20025;-67
2022/08/24 08:36:24;;;;;;;19.23;9.07;;;;;;;32.04;39.17;101722.66;5052567;28;20029;-66
2022/08/24 08:38:49;;;;;;;17.17;7.40;;;;;;;32.21;38.92;101725.16;5052677;28;20507;-65
2022/08/24 08:41:35;;;;;;;13.30;7.93;;;;;;;32.34;38.51;101728.81;5052887;28;20040;-65
2022/08/24 08:44:44;;;;;;;13.82;7.40;;;;;;;32.64;39.72;101723.16;5052424;28;20025;-65
2022/08/24 08:47:22;;;;;;;12.23;6.07;;;;;;;32.66;38.11;101723.91;4991330;28;20038;-65
2022/08/24 08:49:53;;;;;;;14.75;7.22;;;;;;;32.71;37.82;101728.19;5048668;28;20099;-66
2022/08/24 08:52:25;;;;;;;11.60;6.03;;;;;;;32.90;37.13;101726.84;5052259;28;20479;-64
2022/08/24 08:55:03;;;;;;;9.75;5.80;;;;;;;33.18;37.69;101729.53;5052685;28;20037;-66
2022/08/24 08:57:34;;;;;;;11.50;5.78;;;;;;;33.32;35.65;101730.31;5052464;28;20029;-66
2022/08/24 09:00:03;;;;;;;11.70;6.00;;;;;;;33.65;35.77;101723.41;5052686;28;20052;-66
2022/08/24 09:02:54;;;;;;;10.45;6.53;;;;;;;33.77;36.75;101727.13;5052469;28;20057;-65
2022/08/24 09:05:41;;;;;;;14.63;6.10;;;;;;;33.50;35.93;101727.28;5052472;28;20421;-65
2022/08/24 09:08:31;;;;;;;11.63;5.53;;;;;;;33.64;36.90;101728.03;5052436;28;20108;-65
2022/08/24 09:11:05;;;;;;;8.60;4.82;;;;;;;33.89;35.42;101726.22;5052233;28;20471;-65
2022/08/24 09:13:53;;;;;;;12.63;6.20;;;;;;;34.10;35.77;101729.28;5052218;28;20032;-66
2022/08/24 09:16:48;;;;;;;11.48;6.00;;;;;;;34.16;36.04;101730.69;5052480;28;20043;-66
2022/08/24 09:19:42;;;;;;;6.80;3.70;;;;;;;34.48;33.36;101720.94;5052145;28;20039;-65
2022/08/24 09:22:19;;;;;;;3.67;2.45;;;;;;;34.38;32.77;101728.06;5052333;28;20025;-65
2022/08/24 09:25:01;;;;;;;6.43;3.00;;;;;;;34.18;32.59;101731.47;5053474;28;20049;-66
2022/08/24 09:28:01;;;;;;;12.15;4.50;;;;;;;34.04;33.76;101732.47;5055864;28;20048;-65
2022/08/24 09:30:47;;;;;;;5.45;3.00;;;;;;;33.94;33.83;101725.88;5055886;28;20036;-64
2022/08/24 09:33:21;;;;;;;4.70;3.20;;;;;;;33.54;34.35;101740.66;5055655;28;20029;-65
2022/08/24 09:36:00;;;;;;;5.35;3.17;;;;;;;33.43;33.99;101725.94;5055734;28;20025;-64
2022/08/24 09:38:57;;;;;;;9.75;3.50;;;;;;;33.11;35.64;101732.72;5055756;28;20037;-67
2022/08/24 09:41:35;;;;;;;8.88;3.50;;;;;;;32.91;35.06;101727.72;5055893;28;20056;-64
2022/08/24 09:44:18;;;;;;;6.90;3.50;;;;;;;32.74;36.36;101726.13;5055364;28;20025;-65
2022/08/24 09:56:55;;;;;;;9.82;4.07;;;;;;;33.55;34.28;101727.81;5138537;22;20130;-60
2022/08/24 10:02:46;;;;;;;10.82;4.95;;;;;;;33.89;34.73;101729.84;5117525;22;20397;-66
2022/08/24 10:05:39;;;;;;;6.47;4.80;;;;;;;34.06;33.87;101731.38;5095600;28;20489;-66
2022/08/24 10:08:41;;;;;;;9.65;4.20;;;;;;;34.56;34.00;101721.22;5095478;28;20069;-67
2022/08/24 10:11:19;;;;;;;6.80;3.75;;;;;;;34.43;32.23;101723.09;5095307;28;20545;-66
2022/08/24 10:14:26;;;;;;;5.38;3.55;;;;;;;34.64;32.71;101715.13;5095500;28;20024;-67
2022/08/24 10:17:33;;;;;;;5.93;3.60;;;;;;;34.63;32.85;101717.00;5077200;28;20059;-66
2022/08/24 10:20:18;;;;;;;7.57;3.58;;;;;;;34.64;32.38;101713.25;5095308;28;20032;-66
2022/08/24 10:23:17;;;;;;;7.97;3.30;;;;;;;34.85;31.68;101702.47;5095161;28;20030;-66
2022/08/24 10:25:54;;;;;;;4.30;2.75;;;;;;;34.94;31.09;101709.09;5095143;28;20031;-66
2022/08/24 10:28:50;;;;;;;7.82;2.63;;;;;;;35.53;31.69;101692.53;5095064;28;20495;-64
2022/08/24 10:31:30;;;;;;;4.20;2.50;;;;;;;35.69;30.01;101689.41;5095133;28;20056;-65
2022/08/24 10:34:30;;;;;;;5.13;2.60;;;;;;;36.00;30.26;101695.16;5095005;28;20030;-64
2022/08/24 10:36:59;;;;;;;7.50;2.90;;;;;;;36.05;29.93;101695.63;5051778;28;20497;-64
2022/08/24 10:39:42;;;;;;;7.55;3.20;;;;;;;36.06;29.33;101698.28;5094786;28;20028;-64
2022/08/24 10:45:33;;;;;;;3.20;2.20;;;;;;;35.24;30.55;101692.09;5095022;28;20438;-64
2022/08/24 10:48:11;;;;;;;5.55;2.33;;;;;;;34.64;31.46;101693.16;5094809;28;20121;-64
2022/08/24 10:50:43;;;;;;;4.05;2.47;;;;;;;34.39;31.04;101691.41;5094673;28;20024;-65
2022/08/24 10:53:29;;;;;;;6.28;2.78;;;;;;;34.12;32.16;101687.00;5094422;28;20028;-64
2022/08/24 10:56:04;;;;;;;5.72;2.33;;;;;;;34.14;31.64;101692.41;5094551;28;20031;-65
2022/08/24 10:58:44;;;;;;;6.28;2.20;;;;;;;34.16;31.43;101695.03;5094360;28;20024;-64
2022/08/24 11:01:16;;;;;;;4.13;2.40;;;;;;;33.93;31.75;101688.50;5094391;28;20047;-64
2022/08/24 11:04:08;;;;;;;5.93;2.55;;;;;;;34.17;32.29;101688.53;5094142;28;20035;-64
2022/08/24 11:06:37;;;;;;;5.15;2.40;;;;;;;34.11;32.23;101682.53;5089144;28;20560;-66
2022/08/24 11:09:15;;;;;;;4.72;2.40;;;;;;;34.77;31.65;101682.97;5094250;28;20508;-64
2022/08/24 11:11:41;;;;;;;8.13;2.50;;;;;;;34.95;30.22;101677.94;5094019;28;20115;-64
2022/08/24 11:14:25;;;;;;;4.13;2.50;;;;;;;35.70;30.12;101676.53;5094232;28;20063;-63
2022/08/24 11:16:52;;;;;;;4.97;2.45;;;;;;;35.93;29.01;101675.47;5093938;28;20031;-65
2022/08/24 11:19:26;;;;;;;7.38;2.22;;;;;;;36.29;28.98;101674.31;5094045;28;20020;-62
2022/08/24 11:21:54;;;;;;;5.75;2.10;;;;;;;36.61;28.54;101668.78;5094111;28;20024;-64
2022/08/24 11:24:20;;;;;;;4.82;2.30;;;;;;;36.50;28.05;101662.50;5093729;28;20081;-64
2022/08/24 11:27:06;;;;;;;5.77;2.30;;;;;;;36.67;28.80;101669.28;5093983;28;20497;-65
2022/08/24 11:29:50;;;;;;;5.90;2.30;;;;;;;36.70;29.29;101669.88;5093851;28;20262;-63
2022/08/24 11:32:34;;;;;;;6.00;2.70;;;;;;;36.50;28.86;101671.63;5093769;28;20446;-64
2022/08/24 11:35:13;;;;;;;8.27;3.28;;;;;;;36.30;28.69;101666.91;5093895;28;20099;-64
2022/08/24 11:37:39;;;;;;;5.03;2.80;;;;;;;36.45;27.58;101667.53;5093581;28;20055;-64
2022/08/24 11:40:06;;;;;;;5.22;2.90;;;;;;;36.84;27.09;101665.94;5093707;28;20060;-63
2022/08/24 11:42:44;;;;;;;3.95;2.90;;;;;;;36.82;27.73;101666.06;5093614;28;20380;-63
2022/08/24 11:45:28;;;;;;;7.30;3.08;;;;;;;36.67;28.20;101666.53;5093761;28;20024;-64
2022/08/24 11:48:20;;;;;;;7.50;2.83;;;;;;;36.53;28.96;101660.34;5093540;28;20024;-63
2022/08/24 11:51:01;;;;;;;5.25;2.65;;;;;;;36.45;28.19;101651.88;5093450;28;20024;-63
2022/08/24 11:53:44;;;;;;;8.18;2.80;;;;;;;36.09;29.25;101653.97;5093377;28;20109;-64